sensor_id;sensor_type;location;lat;lon;timestamp;P1;durP1;ratioP1;P2;durP2;ratioP2
59207;SDS011;44977;53.132;6.408;2023-05-07T00:03:55;22.90;;;20.50;;
59207;SDS011;44977;53.132;6.408;2023-05-07T00:08:56;22.00;;;19.70;;
59207;SDS011;44977;53.132;6.408;2023-05-07T00:13:57;23.08;;;20.77;;
59207;SDS011;44977;53.132;6.408;2023-05-07T00:18:58;22.40;;;20.10;;
59207;SDS011;44977;53.132;6.408;2023-05-07T00:23:59;22.20;;;19.90;;
59207;SDS011;44977;53.132;6.408;2023-05-07T00:28:59;24.02;;;21.52;;
59207;SDS011;44977;53.132;6.408;2023-05-07T00:34:00;22.73;;;20.35;;
59207;SDS011;44977;53.132;6.408;2023-05-07T00:39:01;23.42;;;21.00;;
59207;SDS011;44977;53.132;6.408;2023-05-07T00:44:03;23.55;;;21.10;;
59207;SDS011;44977;53.132;6.408;2023-05-07T00:49:04;23.55;;;21.15;;
59207;SDS011;44977;53.132;6.408;2023-05-07T00:54:06;24.52;;;21.70;;
59207;SDS011;44977;53.132;6.408;2023-05-07T00:59:07;23.98;;;21.58;;
59207;SDS011;44977;53.132;6.408;2023-05-07T01:04:08;25.48;;;22.63;;
59207;SDS011;44977;53.132;6.408;2023-05-07T01:09:09;24.38;;;21.88;;
59207;SDS011;44977;53.132;6.408;2023-05-07T01:14:09;24.10;;;21.60;;
59207;SDS011;44977;53.132;6.408;2023-05-07T01:19:11;26.48;;;23.65;;
59207;SDS011;44977;53.132;6.408;2023-05-07T01:24:14;24.48;;;21.88;;
59207;SDS011;44977;53.132;6.408;2023-05-07T01:29:15;25.85;;;23.33;;
59207;SDS011;44977;53.132;6.408;2023-05-07T01:34:16;23.95;;;21.63;;
59207;SDS011;44977;53.132;6.408;2023-05-07T01:39:18;24.75;;;22.25;;
59207;SDS011;44977;53.132;6.408;2023-05-07T01:44:19;26.60;;;23.80;;
59207;SDS011;44977;53.132;6.408;2023-05-07T01:49:20;26.77;;;23.98;;
59207;SDS011;44977;53.132;6.408;2023-05-07T01:54:25;26.95;;;24.15;;
59207;SDS011;44977;53.132;6.408;2023-05-07T01:59:27;27.70;;;24.85;;
59207;SDS011;44977;53.132;6.408;2023-05-07T02:04:28;27.75;;;24.85;;
59207;SDS011;44977;53.132;6.408;2023-05-07T02:09:29;30.10;;;27.15;;
59207;SDS011;44977;53.132;6.408;2023-05-07T02:14:30;27.92;;;24.98;;
59207;SDS011;44977;53.132;6.408;2023-05-07T02:19:30;28.25;;;25.45;;
59207;SDS011;44977;53.132;6.408;2023-05-07T02:24:31;27.75;;;25.05;;
59207;SDS011;44977;53.132;6.408;2023-05-07T02:29:32;31.45;;;28.15;;
59207;SDS011;44977;53.132;6.408;2023-05-07T02:34:32;31.23;;;28.13;;
59207;SDS011;44977;53.132;6.408;2023-05-07T02:39:33;31.13;;;27.73;;
59207;SDS011;44977;53.132;6.408;2023-05-07T02:44:34;29.67;;;26.67;;
59207;SDS011;44977;53.132;6.408;2023-05-07T02:49:35;31.77;;;28.45;;
59207;SDS011;44977;53.132;6.408;2023-05-07T02:54:36;32.15;;;28.75;;
59207;SDS011;44977;53.132;6.408;2023-05-07T02:59:36;33.08;;;29.58;;
59207;SDS011;44977;53.132;6.408;2023-05-07T03:04:38;32.25;;;28.85;;
59207;SDS011;44977;53.132;6.408;2023-05-07T03:09:39;34.67;;;30.83;;
59207;SDS011;44977;53.132;6.408;2023-05-07T03:14:40;33.58;;;30.08;;
59207;SDS011;44977;53.132;6.408;2023-05-07T03:19:41;35.58;;;30.65;;
59207;SDS011;44977;53.132;6.408;2023-05-07T03:24:41;35.47;;;31.65;;
59207;SDS011;44977;53.132;6.408;2023-05-07T03:29:42;35.95;;;31.70;;
59207;SDS011;44977;53.132;6.408;2023-05-07T03:34:44;36.20;;;32.30;;
59207;SDS011;44977;53.132;6.408;2023-05-07T03:39:44;35.08;;;31.27;;
59207;SDS011;44977;53.132;6.408;2023-05-07T03:44:45;35.10;;;30.80;;
59207;SDS011;44977;53.132;6.408;2023-05-07T03:49:46;35.75;;;31.90;;
59207;SDS011;44977;53.132;6.408;2023-05-07T03:54:46;35.30;;;31.50;;
59207;SDS011;44977;53.132;6.408;2023-05-07T03:59:47;39.38;;;33.22;;
59207;SDS011;44977;53.132;6.408;2023-05-07T04:04:48;36.58;;;32.58;;
59207;SDS011;44977;53.132;6.408;2023-05-07T04:09:49;38.97;;;33.97;;
59207;SDS011;44977;53.132;6.408;2023-05-07T04:14:50;38.83;;;34.50;;
59207;SDS011;44977;53.132;6.408;2023-05-07T04:19:50;39.17;;;33.38;;
59207;SDS011;44977;53.132;6.408;2023-05-07T04:24:51;39.97;;;34.92;;
59207;SDS011;44977;53.132;6.408;2023-05-07T04:29:52;42.03;;;34.60;;
59207;SDS011;44977;53.132;6.408;2023-05-07T04:34:56;39.17;;;34.08;;
59207;SDS011;44977;53.132;6.408;2023-05-07T04:39:56;37.13;;;33.28;;
59207;SDS011;44977;53.132;6.408;2023-05-07T04:44:57;37.60;;;33.00;;
59207;SDS011;44977;53.132;6.408;2023-05-07T04:49:58;34.47;;;30.77;;
59207;SDS011;44977;53.132;6.408;2023-05-07T04:54:59;34.65;;;30.88;;
59207;SDS011;44977;53.132;6.408;2023-05-07T05:00:00;36.55;;;32.63;;
59207;SDS011;44977;53.132;6.408;2023-05-07T05:05:01;37.50;;;33.50;;
59207;SDS011;44977;53.132;6.408;2023-05-07T05:10:02;35.00;;;31.40;;
59207;SDS011;44977;53.132;6.408;2023-05-07T05:15:05;34.25;;;30.67;;
59207;SDS011;44977;53.132;6.408;2023-05-07T05:20:07;35.25;;;31.50;;
59207;SDS011;44977;53.132;6.408;2023-05-07T05:25:09;33.72;;;30.27;;
59207;SDS011;44977;53.132;6.408;2023-05-07T05:30:10;33.58;;;29.98;;
59207;SDS011;44977;53.132;6.408;2023-05-07T05:35:11;34.70;;;31.10;;
59207;SDS011;44977;53.132;6.408;2023-05-07T05:40:12;31.70;;;28.45;;
59207;SDS011;44977;53.132;6.408;2023-05-07T05:45:12;33.75;;;30.25;;
59207;SDS011;44977;53.132;6.408;2023-05-07T05:50:13;31.75;;;28.52;;
59207;SDS011;44977;53.132;6.408;2023-05-07T05:55:14;32.38;;;29.08;;
59207;SDS011;44977;53.132;6.408;2023-05-07T06:00:15;33.42;;;30.02;;
59207;SDS011;44977;53.132;6.408;2023-05-07T06:05:16;31.05;;;27.83;;
59207;SDS011;44977;53.132;6.408;2023-05-07T06:10:17;30.13;;;26.92;;
59207;SDS011;44977;53.132;6.408;2023-05-07T06:15:18;29.35;;;26.35;;
59207;SDS011;44977;53.132;6.408;2023-05-07T06:20:18;31.48;;;28.20;;
59207;SDS011;44977;53.132;6.408;2023-05-07T06:25:19;31.23;;;28.02;;
59207;SDS011;44977;53.132;6.408;2023-05-07T06:30:20;30.95;;;27.35;;
59207;SDS011;44977;53.132;6.408;2023-05-07T06:35:20;29.77;;;26.73;;
59207;SDS011;44977;53.132;6.408;2023-05-07T06:40:21;31.25;;;28.08;;
59207;SDS011;44977;53.132;6.408;2023-05-07T06:45:22;31.25;;;28.02;;
59207;SDS011;44977;53.132;6.408;2023-05-07T06:50:23;30.23;;;27.23;;
59207;SDS011;44977;53.132;6.408;2023-05-07T06:55:24;31.15;;;27.95;;
59207;SDS011;44977;53.132;6.408;2023-05-07T07:00:25;30.02;;;26.92;;
59207;SDS011;44977;53.132;6.408;2023-05-07T07:05:29;29.55;;;26.58;;
59207;SDS011;44977;53.132;6.408;2023-05-07T07:10:30;29.00;;;26.05;;
59207;SDS011;44977;53.132;6.408;2023-05-07T07:15:31;29.65;;;26.65;;
59207;SDS011;44977;53.132;6.408;2023-05-07T07:20:31;30.98;;;27.67;;
59207;SDS011;44977;53.132;6.408;2023-05-07T07:25:32;29.70;;;26.70;;
59207;SDS011;44977;53.132;6.408;2023-05-07T07:30:33;30.65;;;27.45;;
59207;SDS011;44977;53.132;6.408;2023-05-07T07:35:34;29.17;;;26.20;;
59207;SDS011;44977;53.132;6.408;2023-05-07T07:40:35;31.83;;;28.52;;
59207;SDS011;44977;53.132;6.408;2023-05-07T07:45:36;29.20;;;26.23;;
59207;SDS011;44977;53.132;6.408;2023-05-07T07:50:36;30.50;;;27.50;;
59207;SDS011;44977;53.132;6.408;2023-05-07T07:55:38;30.52;;;27.33;;
59207;SDS011;44977;53.132;6.408;2023-05-07T08:00:40;30.55;;;27.40;;
59207;SDS011;44977;53.132;6.408;2023-05-07T08:05:40;28.85;;;25.85;;
59207;SDS011;44977;53.132;6.408;2023-05-07T08:10:41;30.60;;;27.40;;
59207;SDS011;44977;53.132;6.408;2023-05-07T08:15:42;30.42;;;27.20;;
59207;SDS011;44977;53.132;6.408;2023-05-07T08:20:43;30.80;;;27.50;;
59207;SDS011;44977;53.132;6.408;2023-05-07T08:25:43;30.95;;;27.55;;
59207;SDS011;44977;53.132;6.408;2023-05-07T08:30:44;30.95;;;27.75;;
59207;SDS011;44977;53.132;6.408;2023-05-07T08:35:45;30.63;;;27.33;;
59207;SDS011;44977;53.132;6.408;2023-05-07T08:40:46;30.50;;;27.35;;
59207;SDS011;44977;53.132;6.408;2023-05-07T08:45:47;30.48;;;27.30;;
59207;SDS011;44977;53.132;6.408;2023-05-07T08:50:52;30.17;;;27.00;;
59207;SDS011;44977;53.132;6.408;2023-05-07T08:55:53;31.15;;;27.85;;
59207;SDS011;44977;53.132;6.408;2023-05-07T09:00:54;31.00;;;27.80;;
59207;SDS011;44977;53.132;6.408;2023-05-07T09:05:55;31.05;;;27.80;;
59207;SDS011;44977;53.132;6.408;2023-05-07T09:10:56;30.75;;;27.50;;
59207;SDS011;44977;53.132;6.408;2023-05-07T09:15:57;30.35;;;27.25;;
59207;SDS011;44977;53.132;6.408;2023-05-07T09:20:58;30.13;;;27.10;;
59207;SDS011;44977;53.132;6.408;2023-05-07T09:26:00;28.92;;;26.00;;
59207;SDS011;44977;53.132;6.408;2023-05-07T09:31:01;30.33;;;27.13;;
59207;SDS011;44977;53.132;6.408;2023-05-07T09:36:03;30.33;;;26.75;;
59207;SDS011;44977;53.132;6.408;2023-05-07T09:41:08;28.42;;;25.52;;
59207;SDS011;44977;53.132;6.408;2023-05-07T09:46:14;26.00;;;23.30;;
59207;SDS011;44977;53.132;6.408;2023-05-07T09:51:29;27.23;;;24.42;;
59207;SDS011;44977;53.132;6.408;2023-05-07T09:56:34;27.48;;;24.58;;
59207;SDS011;44977;53.132;6.408;2023-05-07T10:01:37;25.65;;;23.15;;
59207;SDS011;44977;53.132;6.408;2023-05-07T10:06:40;26.63;;;24.02;;
59207;SDS011;44977;53.132;6.408;2023-05-07T10:11:42;24.95;;;22.42;;
59207;SDS011;44977;53.132;6.408;2023-05-07T10:16:44;25.77;;;23.08;;
59207;SDS011;44977;53.132;6.408;2023-05-07T10:21:48;25.25;;;22.70;;
59207;SDS011;44977;53.132;6.408;2023-05-07T10:26:55;26.08;;;23.48;;
59207;SDS011;44977;53.132;6.408;2023-05-07T10:37:16;25.75;;;23.25;;
59207;SDS011;44977;53.132;6.408;2023-05-07T10:42:17;25.48;;;22.80;;
59207;SDS011;44977;53.132;6.408;2023-05-07T10:47:18;25.05;;;22.55;;
59207;SDS011;44977;53.132;6.408;2023-05-07T10:52:20;24.23;;;21.75;;
59207;SDS011;44977;53.132;6.408;2023-05-07T10:57:33;24.50;;;22.10;;
59207;SDS011;44977;53.132;6.408;2023-05-07T11:07:59;24.00;;;21.60;;
59207;SDS011;44977;53.132;6.408;2023-05-07T11:13:01;22.38;;;20.17;;
59207;SDS011;44977;53.132;6.408;2023-05-07T11:18:02;23.83;;;21.42;;
59207;SDS011;44977;53.132;6.408;2023-05-07T11:23:03;21.15;;;19.05;;
59207;SDS011;44977;53.132;6.408;2023-05-07T11:28:06;23.40;;;21.20;;
59207;SDS011;44977;53.132;6.408;2023-05-07T11:33:10;21.73;;;19.60;;
59207;SDS011;44977;53.132;6.408;2023-05-07T11:38:12;22.45;;;20.08;;
59207;SDS011;44977;53.132;6.408;2023-05-07T11:43:15;21.95;;;19.75;;
59207;SDS011;44977;53.132;6.408;2023-05-07T11:48:16;22.98;;;20.77;;
59207;SDS011;44977;53.132;6.408;2023-05-07T11:53:17;21.38;;;19.27;;
59207;SDS011;44977;53.132;6.408;2023-05-07T11:58:22;22.02;;;19.88;;
59207;SDS011;44977;53.132;6.408;2023-05-07T12:03:24;21.45;;;19.45;;
59207;SDS011;44977;53.132;6.408;2023-05-07T12:08:24;19.90;;;18.05;;
59207;SDS011;44977;53.132;6.408;2023-05-07T12:13:25;20.13;;;18.17;;
59207;SDS011;44977;53.132;6.408;2023-05-07T12:18:26;19.85;;;17.95;;
59207;SDS011;44977;53.132;6.408;2023-05-07T12:23:28;20.08;;;18.17;;
59207;SDS011;44977;53.132;6.408;2023-05-07T12:28:29;20.58;;;18.67;;
59207;SDS011;44977;53.132;6.408;2023-05-07T12:33:31;20.58;;;18.52;;
59207;SDS011;44977;53.132;6.408;2023-05-07T12:38:36;21.52;;;19.40;;
59207;SDS011;44977;53.132;6.408;2023-05-07T12:43:38;21.70;;;19.60;;
59207;SDS011;44977;53.132;6.408;2023-05-07T12:48:43;20.33;;;18.38;;
59207;SDS011;44977;53.132;6.408;2023-05-07T12:53:46;19.17;;;17.35;;
59207;SDS011;44977;53.132;6.408;2023-05-07T12:58:48;19.80;;;17.90;;
59207;SDS011;44977;53.132;6.408;2023-05-07T13:03:49;20.55;;;18.65;;
59207;SDS011;44977;53.132;6.408;2023-05-07T13:08:52;19.55;;;17.73;;
59207;SDS011;44977;53.132;6.408;2023-05-07T13:13:53;20.63;;;18.63;;
59207;SDS011;44977;53.132;6.408;2023-05-07T13:18:54;19.95;;;18.05;;
59207;SDS011;44977;53.132;6.408;2023-05-07T13:23:54;18.85;;;17.05;;
59207;SDS011;44977;53.132;6.408;2023-05-07T13:28:55;19.35;;;17.55;;
59207;SDS011;44977;53.132;6.408;2023-05-07T13:33:56;18.85;;;17.05;;
59207;SDS011;44977;53.132;6.408;2023-05-07T13:38:56;18.23;;;16.38;;
59207;SDS011;44977;53.132;6.408;2023-05-07T13:43:59;18.15;;;16.45;;
59207;SDS011;44977;53.132;6.408;2023-05-07T13:49:00;18.50;;;16.75;;
59207;SDS011;44977;53.132;6.408;2023-05-07T13:54:01;17.90;;;16.20;;
59207;SDS011;44977;53.132;6.408;2023-05-07T13:59:01;17.25;;;15.65;;
59207;SDS011;44977;53.132;6.408;2023-05-07T14:04:02;18.42;;;16.63;;
59207;SDS011;44977;53.132;6.408;2023-05-07T14:09:03;18.10;;;16.40;;
59207;SDS011;44977;53.132;6.408;2023-05-07T14:14:04;19.35;;;17.50;;
59207;SDS011;44977;53.132;6.408;2023-05-07T14:19:05;16.90;;;15.30;;
59207;SDS011;44977;53.132;6.408;2023-05-07T14:24:08;18.80;;;17.10;;
59207;SDS011;44977;53.132;6.408;2023-05-07T14:29:10;17.80;;;16.10;;
59207;SDS011;44977;53.132;6.408;2023-05-07T14:34:11;15.85;;;14.35;;
59207;SDS011;44977;53.132;6.408;2023-05-07T14:39:11;16.95;;;15.43;;
59207;SDS011;44977;53.132;6.408;2023-05-07T14:44:12;17.02;;;15.52;;
59207;SDS011;44977;53.132;6.408;2023-05-07T14:49:13;17.38;;;15.77;;
59207;SDS011;44977;53.132;6.408;2023-05-07T14:54:17;16.33;;;14.73;;
59207;SDS011;44977;53.132;6.408;2023-05-07T14:59:18;16.60;;;15.10;;
59207;SDS011;44977;53.132;6.408;2023-05-07T15:04:21;16.83;;;15.32;;
59207;SDS011;44977;53.132;6.408;2023-05-07T15:09:21;16.88;;;15.27;;
59207;SDS011;44977;53.132;6.408;2023-05-07T15:14:22;16.90;;;15.40;;
59207;SDS011;44977;53.132;6.408;2023-05-07T15:19:23;16.48;;;14.98;;
59207;SDS011;44977;53.132;6.408;2023-05-07T15:24:29;15.40;;;13.95;;
59207;SDS011;44977;53.132;6.408;2023-05-07T15:29:30;16.33;;;14.75;;
59207;SDS011;44977;53.132;6.408;2023-05-07T15:34:31;16.58;;;15.07;;
59207;SDS011;44977;53.132;6.408;2023-05-07T15:39:32;16.02;;;14.52;;
59207;SDS011;44977;53.132;6.408;2023-05-07T15:44:33;15.65;;;14.25;;
59207;SDS011;44977;53.132;6.408;2023-05-07T15:49:34;15.70;;;14.25;;
59207;SDS011;44977;53.132;6.408;2023-05-07T15:54:35;14.85;;;13.45;;
59207;SDS011;44977;53.132;6.408;2023-05-07T15:59:37;16.35;;;14.85;;
59207;SDS011;44977;53.132;6.408;2023-05-07T16:04:38;15.43;;;13.98;;
59207;SDS011;44977;53.132;6.408;2023-05-07T16:09:39;14.73;;;13.32;;
59207;SDS011;44977;53.132;6.408;2023-05-07T16:14:40;16.65;;;15.05;;
59207;SDS011;44977;53.132;6.408;2023-05-07T16:19:40;15.75;;;14.23;;
59207;SDS011;44977;53.132;6.408;2023-05-07T16:24:41;15.98;;;14.48;;
59207;SDS011;44977;53.132;6.408;2023-05-07T16:29:42;17.50;;;15.85;;
59207;SDS011;44977;53.132;6.408;2023-05-07T16:34:43;15.63;;;14.23;;
59207;SDS011;44977;53.132;6.408;2023-05-07T16:39:43;16.42;;;14.82;;
59207;SDS011;44977;53.132;6.408;2023-05-07T16:44:44;15.57;;;14.07;;
59207;SDS011;44977;53.132;6.408;2023-05-07T16:49:44;16.52;;;14.93;;
59207;SDS011;44977;53.132;6.408;2023-05-07T16:54:45;14.88;;;13.48;;
59207;SDS011;44977;53.132;6.408;2023-05-07T16:59:46;15.57;;;14.15;;
59207;SDS011;44977;53.132;6.408;2023-05-07T17:04:47;15.85;;;14.32;;
59207;SDS011;44977;53.132;6.408;2023-05-07T17:09:47;15.88;;;14.38;;
59207;SDS011;44977;53.132;6.408;2023-05-07T17:14:48;17.38;;;15.75;;
59207;SDS011;44977;53.132;6.408;2023-05-07T17:19:49;18.02;;;16.42;;
59207;SDS011;44977;53.132;6.408;2023-05-07T17:24:49;18.17;;;16.38;;
59207;SDS011;44977;53.132;6.408;2023-05-07T17:29:50;17.58;;;15.82;;
59207;SDS011;44977;53.132;6.408;2023-05-07T17:34:51;17.95;;;16.23;;
59207;SDS011;44977;53.132;6.408;2023-05-07T17:39:51;16.58;;;14.98;;
59207;SDS011;44977;53.132;6.408;2023-05-07T17:44:52;17.23;;;15.63;;
59207;SDS011;44977;53.132;6.408;2023-05-07T17:49:54;15.98;;;14.38;;
59207;SDS011;44977;53.132;6.408;2023-05-07T17:54:54;16.08;;;14.57;;
59207;SDS011;44977;53.132;6.408;2023-05-07T17:59:55;17.02;;;15.43;;
59207;SDS011;44977;53.132;6.408;2023-05-07T18:04:59;17.33;;;15.73;;
59207;SDS011;44977;53.132;6.408;2023-05-07T18:09:59;15.88;;;14.27;;
59207;SDS011;44977;53.132;6.408;2023-05-07T18:15:00;16.48;;;14.90;;
59207;SDS011;44977;53.132;6.408;2023-05-07T18:20:02;16.75;;;15.05;;
59207;SDS011;44977;53.132;6.408;2023-05-07T18:25:08;16.40;;;14.80;;
59207;SDS011;44977;53.132;6.408;2023-05-07T18:30:09;16.55;;;14.93;;
59207;SDS011;44977;53.132;6.408;2023-05-07T18:35:10;17.73;;;16.02;;
59207;SDS011;44977;53.132;6.408;2023-05-07T18:40:11;17.58;;;15.80;;
59207;SDS011;44977;53.132;6.408;2023-05-07T18:45:12;17.25;;;15.65;;
59207;SDS011;44977;53.132;6.408;2023-05-07T18:50:12;18.08;;;16.38;;
59207;SDS011;44977;53.132;6.408;2023-05-07T18:55:14;18.00;;;16.40;;
59207;SDS011;44977;53.132;6.408;2023-05-07T19:00:16;17.75;;;16.05;;
59207;SDS011;44977;53.132;6.408;2023-05-07T19:05:16;18.65;;;16.75;;
59207;SDS011;44977;53.132;6.408;2023-05-07T19:10:17;17.30;;;15.60;;
59207;SDS011;44977;53.132;6.408;2023-05-07T19:15:18;16.92;;;15.32;;
59207;SDS011;44977;53.132;6.408;2023-05-07T19:20:19;17.10;;;15.50;;
59207;SDS011;44977;53.132;6.408;2023-05-07T19:25:20;16.45;;;14.85;;
59207;SDS011;44977;53.132;6.408;2023-05-07T19:30:21;16.50;;;15.00;;
59207;SDS011;44977;53.132;6.408;2023-05-07T19:35:22;16.27;;;14.70;;
59207;SDS011;44977;53.132;6.408;2023-05-07T19:40:22;16.40;;;14.90;;
59207;SDS011;44977;53.132;6.408;2023-05-07T19:45:23;15.75;;;14.25;;
59207;SDS011;44977;53.132;6.408;2023-05-07T19:50:24;16.40;;;14.80;;
59207;SDS011;44977;53.132;6.408;2023-05-07T19:55:25;16.48;;;14.82;;
59207;SDS011;44977;53.132;6.408;2023-05-07T20:00:27;15.77;;;14.18;;
59207;SDS011;44977;53.132;6.408;2023-05-07T20:05:31;15.75;;;14.25;;
59207;SDS011;44977;53.132;6.408;2023-05-07T20:10:33;16.23;;;14.73;;
59207;SDS011;44977;53.132;6.408;2023-05-07T20:15:37;16.55;;;14.95;;
59207;SDS011;44977;53.132;6.408;2023-05-07T20:20:38;17.27;;;15.65;;
59207;SDS011;44977;53.132;6.408;2023-05-07T20:25:39;17.63;;;15.93;;
59207;SDS011;44977;53.132;6.408;2023-05-07T20:30:42;17.63;;;15.82;;
59207;SDS011;44977;53.132;6.408;2023-05-07T20:35:43;16.88;;;15.27;;
59207;SDS011;44977;53.132;6.408;2023-05-07T20:40:44;17.65;;;15.95;;
59207;SDS011;44977;53.132;6.408;2023-05-07T20:45:44;16.80;;;15.20;;
59207;SDS011;44977;53.132;6.408;2023-05-07T20:50:45;16.77;;;15.20;;
59207;SDS011;44977;53.132;6.408;2023-05-07T20:55:46;17.15;;;15.52;;
59207;SDS011;44977;53.132;6.408;2023-05-07T21:00:47;16.10;;;14.50;;
59207;SDS011;44977;53.132;6.408;2023-05-07T21:05:51;16.63;;;15.02;;
59207;SDS011;44977;53.132;6.408;2023-05-07T21:10:54;16.17;;;14.57;;
59207;SDS011;44977;53.132;6.408;2023-05-07T21:15:55;15.65;;;14.05;;
59207;SDS011;44977;53.132;6.408;2023-05-07T21:20:56;15.27;;;13.77;;
59207;SDS011;44977;53.132;6.408;2023-05-07T21:25:56;14.50;;;13.10;;
59207;SDS011;44977;53.132;6.408;2023-05-07T21:30:57;14.07;;;12.68;;
59207;SDS011;44977;53.132;6.408;2023-05-07T21:35:58;14.10;;;12.65;;
59207;SDS011;44977;53.132;6.408;2023-05-07T21:40:58;13.63;;;12.32;;
59207;SDS011;44977;53.132;6.408;2023-05-07T21:45:59;13.98;;;12.57;;
59207;SDS011;44977;53.132;6.408;2023-05-07T21:51:03;13.30;;;12.00;;
59207;SDS011;44977;53.132;6.408;2023-05-07T21:56:05;13.15;;;11.77;;
59207;SDS011;44977;53.132;6.408;2023-05-07T22:01:06;13.07;;;11.77;;
59207;SDS011;44977;53.132;6.408;2023-05-07T22:06:08;14.60;;;13.15;;
59207;SDS011;44977;53.132;6.408;2023-05-07T22:11:09;13.60;;;12.20;;
59207;SDS011;44977;53.132;6.408;2023-05-07T22:16:09;13.85;;;12.48;;
59207;SDS011;44977;53.132;6.408;2023-05-07T22:21:10;13.25;;;11.95;;
59207;SDS011;44977;53.132;6.408;2023-05-07T22:26:11;12.48;;;11.18;;
59207;SDS011;44977;53.132;6.408;2023-05-07T22:31:12;13.15;;;11.75;;
59207;SDS011;44977;53.132;6.408;2023-05-07T22:36:13;13.00;;;11.63;;
59207;SDS011;44977;53.132;6.408;2023-05-07T22:41:14;12.82;;;11.50;;
59207;SDS011;44977;53.132;6.408;2023-05-07T22:46:15;13.43;;;12.02;;
59207;SDS011;44977;53.132;6.408;2023-05-07T22:51:15;13.27;;;11.25;;
59207;SDS011;44977;53.132;6.408;2023-05-07T22:56:17;12.65;;;11.35;;
59207;SDS011;44977;53.132;6.408;2023-05-07T23:01:17;12.50;;;11.20;;
59207;SDS011;44977;53.132;6.408;2023-05-07T23:06:18;12.77;;;11.48;;
59207;SDS011;44977;53.132;6.408;2023-05-07T23:11:19;12.48;;;11.25;;
59207;SDS011;44977;53.132;6.408;2023-05-07T23:16:20;13.13;;;11.80;;
59207;SDS011;44977;53.132;6.408;2023-05-07T23:21:21;13.50;;;12.10;;
59207;SDS011;44977;53.132;6.408;2023-05-07T23:26:21;13.20;;;11.77;;
59207;SDS011;44977;53.132;6.408;2023-05-07T23:31:25;13.52;;;12.10;;
59207;SDS011;44977;53.132;6.408;2023-05-07T23:36:26;14.30;;;12.90;;
59207;SDS011;44977;53.132;6.408;2023-05-07T23:41:27;14.73;;;13.15;;
59207;SDS011;44977;53.132;6.408;2023-05-07T23:46:28;14.88;;;13.32;;
59207;SDS011;44977;53.132;6.408;2023-05-07T23:51:28;14.93;;;13.38;;
59207;SDS011;44977;53.132;6.408;2023-05-07T23:56:30;14.40;;;12.90;;
